createdAt,value
2019-02-02T00:01:08.442Z,26.93
2019-02-02T00:03:57.018Z,26.83
2019-02-02T00:06:26.541Z,28.27
2019-02-02T00:08:55.973Z,29.83
2019-02-02T00:11:25.479Z,26.50
2019-02-02T00:14:14.157Z,29.23
2019-02-02T00:16:55.038Z,26.43
2019-02-02T00:19:24.544Z,28.07
2019-02-02T00:21:53.950Z,31.33
2019-02-02T00:24:23.445Z,31.07
2019-02-02T00:26:52.957Z,32.80
2019-02-02T00:32:11.654Z,23.47
2019-02-02T00:34:41.164Z,30.83
2019-02-02T00:37:10.619Z,27.27
2019-02-02T00:39:40.471Z,27.47
2019-02-02T00:42:10.049Z,33.83
2019-02-02T00:44:39.498Z,30.60
2019-02-02T00:47:09.446Z,30.50
2019-02-02T00:49:39.015Z,29.27
2019-02-02T00:52:08.535Z,35.40
2019-02-02T00:54:38.092Z,31.53
2019-02-02T00:57:07.697Z,30.67
2019-02-02T00:59:56.435Z,26.30
2019-02-02T01:05:25.527Z,31.27
2019-02-02T01:07:43.744Z,29.70
2019-02-02T01:10:17.368Z,29.63
2019-02-02T01:12:49.951Z,31.00
2019-02-02T01:15:19.615Z,31.20
2019-02-02T01:20:46.121Z,31.90
2019-02-02T01:26:03.460Z,32.00
2019-02-02T01:28:44.487Z,34.63
2019-02-02T01:31:14.162Z,34.33
2019-02-02T01:33:46.220Z,34.87
2019-02-02T01:36:34.777Z,36.10
2019-02-02T01:41:45.442Z,35.90
2019-02-02T01:46:58.576Z,33.17
2019-02-02T01:52:23.862Z,36.53
2019-02-02T01:57:42.620Z,30.30
2019-02-02T02:00:15.534Z,35.47
2019-02-02T02:02:48.276Z,30.73
2019-02-02T02:05:39.020Z,33.93
2019-02-02T02:08:11.056Z,34.87
2019-02-02T02:10:40.607Z,31.90
2019-02-02T02:13:10.283Z,33.13
2019-02-02T02:15:40.053Z,32.77
2019-02-02T02:18:09.569Z,35.93
2019-02-02T02:20:39.170Z,36.97
2019-02-02T02:23:10.472Z,31.97
2019-02-02T02:26:02.944Z,40.77
2019-02-02T02:28:43.773Z,34.83
2019-02-02T02:31:13.338Z,33.77
2019-02-02T02:33:45.612Z,34.57
2019-02-02T02:38:50.455Z,38.00
2019-02-02T02:41:19.994Z,35.33
2019-02-02T02:49:28.185Z,34.63
2019-02-02T02:51:59.995Z,33.37
2019-02-02T02:54:29.428Z,32.37
2019-02-02T02:56:58.886Z,37.40
2019-02-02T02:59:28.433Z,34.67
2019-02-02T03:01:59.587Z,39.20
2019-02-02T03:04:29.007Z,37.57
2019-02-02T03:06:58.479Z,37.83
2019-02-02T03:09:39.533Z,31.57
2019-02-02T03:12:20.385Z,35.43
2019-02-02T03:15:01.048Z,36.33
2019-02-02T03:17:30.471Z,38.63
2019-02-02T03:20:19.132Z,42.27
2019-02-02T03:22:48.655Z,38.57
2019-02-02T03:25:36.305Z,39.90
2019-02-02T03:28:05.892Z,36.60
2019-02-02T03:30:35.582Z,35.53
2019-02-02T03:33:25.675Z,34.50
2019-02-02T03:35:55.074Z,34.63
2019-02-02T03:38:24.558Z,34.30
2019-02-02T03:40:54.067Z,36.50
2019-02-02T03:43:23.551Z,40.20
2019-02-02T03:45:52.984Z,41.87
2019-02-02T03:48:22.868Z,41.70
2019-02-02T03:50:52.268Z,39.13
2019-02-02T03:53:21.702Z,40.63
2019-02-02T03:55:51.224Z,39.00
2019-02-02T03:58:35.452Z,41.07
2019-02-02T04:00:51.990Z,41.90
2019-02-02T04:03:22.072Z,37.87
2019-02-02T04:05:51.485Z,41.10
2019-02-02T04:08:20.981Z,44.40
2019-02-02T04:10:50.585Z,42.27
2019-02-02T04:13:20.597Z,45.63
2019-02-02T04:15:57.580Z,42.43
2019-02-02T04:18:27.435Z,41.83
2019-02-02T04:20:56.857Z,44.33
2019-02-02T04:23:26.313Z,45.40
2019-02-02T04:25:58.605Z,46.17
2019-02-02T04:31:12.037Z,45.47
2019-02-02T04:34:00.702Z,44.77
2019-02-02T04:36:30.146Z,40.17
2019-02-02T04:38:59.599Z,44.67
2019-02-02T04:41:31.635Z,43.30
2019-02-02T04:49:59.536Z,47.90
2019-02-02T04:52:29.056Z,41.67
2019-02-02T04:55:19.469Z,45.47
2019-02-02T04:57:48.900Z,43.03
2019-02-02T05:00:35.629Z,48.87
2019-02-02T05:03:05.140Z,48.37
2019-02-02T05:05:34.761Z,43.80
2019-02-02T05:08:23.238Z,42.33
2019-02-02T05:10:52.748Z,41.67
2019-02-02T05:13:22.187Z,44.27
2019-02-02T05:16:03.510Z,45.30
2019-02-02T05:18:35.000Z,42.13
2019-02-02T05:21:23.847Z,39.07
2019-02-02T05:27:15.513Z,39.60
2019-02-02T05:29:45.265Z,35.57
2019-02-02T05:32:15.030Z,41.30
2019-02-02T05:35:03.493Z,35.20
2019-02-02T05:37:33.003Z,36.87
2019-02-02T05:40:02.446Z,36.27
2019-02-02T05:42:31.900Z,35.60
2019-02-02T05:45:01.345Z,35.93
2019-02-02T05:47:30.797Z,32.43
2019-02-02T05:50:00.371Z,37.10
2019-02-02T05:52:29.794Z,34.07
2019-02-02T05:54:59.212Z,35.27
2019-02-02T05:57:28.764Z,33.40
2019-02-02T05:59:58.222Z,39.10
2019-02-02T06:02:34.592Z,33.77
2019-02-02T06:05:04.028Z,36.27
2019-02-02T06:07:33.875Z,36.17
2019-02-02T06:10:03.341Z,36.63
2019-02-02T06:12:32.801Z,33.93
2019-02-02T06:15:21.402Z,34.23
2019-02-02T06:17:54.865Z,34.33
2019-02-02T06:20:43.433Z,32.23
2019-02-02T06:26:25.460Z,28.37
2019-02-02T06:28:55.269Z,29.23
2019-02-02T06:31:24.830Z,27.17
2019-02-02T06:33:54.414Z,32.37
2019-02-02T06:36:24.022Z,27.50
2019-02-02T06:38:53.967Z,28.67
2019-02-02T06:41:23.424Z,30.40
2019-02-02T06:43:52.941Z,29.20
2019-02-02T06:46:22.392Z,24.97
2019-02-02T06:48:55.284Z,29.53
2019-02-02T06:51:24.731Z,23.67
2019-02-02T06:53:54.811Z,26.17
2019-02-02T06:59:20.327Z,26.13
2019-02-02T07:01:49.765Z,21.20
2019-02-02T07:04:19.202Z,23.50
2019-02-02T07:06:48.746Z,25.50
2019-02-02T07:09:37.227Z,21.70
2019-02-02T07:12:25.826Z,19.37
2019-02-02T07:14:55.536Z,20.93
2019-02-02T07:17:25.013Z,20.27
2019-02-02T07:22:29.857Z,20.40
2019-02-02T07:28:15.168Z,19.43
2019-02-02T07:31:03.764Z,22.40
2019-02-02T07:33:45.115Z,20.30
2019-02-02T07:36:15.225Z,20.93
2019-02-02T07:39:05.235Z,21.57
2019-02-02T07:41:34.667Z,22.23
2019-02-02T07:44:04.427Z,23.53
2019-02-02T07:46:34.056Z,24.63
2019-02-02T07:57:53.339Z,23.83
2019-02-02T08:00:40.925Z,23.67
2019-02-02T08:03:11.702Z,24.13
2019-02-02T08:05:41.252Z,25.13
2019-02-02T08:11:02.273Z,22.17
2019-02-02T08:13:31.724Z,19.83
2019-02-02T08:16:01.212Z,23.23
2019-02-02T08:18:30.681Z,20.10
2019-02-02T08:21:02.026Z,20.90
2019-02-02T08:23:50.498Z,23.40
2019-02-02T08:29:14.135Z,21.13
2019-02-02T08:32:02.743Z,20.37
2019-02-02T08:34:51.209Z,17.57
2019-02-02T08:37:20.747Z,19.77
2019-02-02T08:40:02.098Z,21.07
2019-02-02T08:42:21.444Z,22.57
2019-02-02T08:44:50.951Z,19.17
2019-02-02T08:47:20.511Z,24.77
2019-02-02T08:52:25.300Z,20.07
2019-02-02T08:54:54.879Z,22.53
2019-02-02T08:57:24.405Z,22.73
2019-02-02T09:00:14.663Z,21.63
2019-02-02T09:02:44.308Z,23.50
2019-02-02T09:05:15.568Z,23.37
2019-02-02T09:07:45.323Z,21.13
2019-02-02T09:10:17.624Z,22.07
2019-02-02T09:12:47.432Z,20.97
2019-02-02T09:15:17.628Z,23.07
2019-02-02T09:17:47.415Z,22.33
2019-02-02T09:20:56.394Z,19.97
2019-02-02T09:23:25.880Z,21.50
2019-02-02T09:25:55.312Z,19.03
2019-02-02T09:28:24.821Z,21.40
2019-02-02T09:30:56.773Z,21.97
2019-02-02T09:33:26.261Z,21.83
2019-02-02T09:35:55.771Z,17.17
2019-02-02T09:38:25.263Z,20.80
2019-02-02T09:40:54.706Z,22.60
2019-02-02T09:43:24.333Z,21.00
2019-02-02T09:46:12.851Z,19.20
2019-02-02T09:49:01.362Z,18.73
2019-02-02T09:51:34.050Z,17.50
2019-02-02T09:54:03.484Z,19.10
2019-02-02T09:56:53.477Z,16.90
2019-02-02T09:59:23.095Z,16.80
2019-02-02T10:01:52.565Z,22.07
2019-02-02T10:04:22.055Z,21.97
2019-02-02T10:07:03.300Z,21.80
2019-02-02T10:09:32.982Z,23.70
2019-02-02T10:12:21.495Z,21.13
2019-02-02T10:14:51.002Z,21.63
2019-02-02T10:17:20.475Z,18.87
2019-02-02T10:19:49.915Z,19.07
2019-02-02T10:22:19.412Z,20.37
2019-02-02T10:24:48.843Z,18.27
2019-02-02T10:27:39.294Z,20.17
2019-02-02T10:30:14.456Z,17.80
2019-02-02T10:35:19.099Z,20.40
2019-02-02T10:37:48.534Z,19.17
2019-02-02T10:40:37.035Z,20.57
2019-02-02T10:43:21.005Z,23.10
2019-02-02T10:45:38.502Z,19.17
2019-02-02T10:48:08.503Z,22.37
2019-02-02T10:53:28.304Z,20.43
2019-02-02T10:55:57.738Z,19.80
2019-02-02T11:03:49.464Z,22.33
2019-02-02T11:06:19.133Z,21.80
2019-02-02T11:08:59.807Z,21.93
2019-02-02T11:11:29.812Z,22.10
2019-02-02T11:13:59.467Z,23.87
2019-02-02T11:16:30.559Z,20.57
2019-02-02T11:19:00.001Z,21.47
2019-02-02T11:21:29.860Z,23.10
2019-02-02T11:24:19.044Z,21.10
2019-02-02T11:27:08.032Z,21.50
2019-02-02T11:29:39.783Z,21.13
2019-02-02T11:32:09.198Z,21.60
2019-02-02T11:34:38.781Z,21.77
2019-02-02T11:39:48.478Z,18.80
2019-02-02T11:42:51.343Z,21.23
2019-02-02T11:48:03.702Z,18.73
2019-02-02T11:50:33.138Z,18.20
2019-02-02T11:53:02.565Z,19.50
2019-02-02T11:55:32.105Z,17.87
2019-02-02T11:58:01.532Z,21.33
2019-02-02T12:00:57.884Z,16.63
2019-02-02T12:03:27.344Z,18.73
2019-02-02T12:05:56.786Z,20.07
2019-02-02T12:08:26.204Z,19.67
2019-02-02T12:11:08.404Z,16.47
2019-02-02T12:13:38.044Z,20.50
2019-02-02T12:16:07.559Z,15.37
2019-02-02T12:18:37.011Z,18.43
2019-02-02T12:21:06.631Z,16.70
2019-02-02T12:23:36.501Z,20.00
2019-02-02T12:26:26.446Z,17.83
2019-02-02T12:29:08.461Z,21.97
2019-02-02T12:31:38.276Z,20.40
2019-02-02T12:34:07.829Z,17.53
2019-02-02T12:36:37.295Z,19.03
2019-02-02T12:39:28.329Z,18.43
2019-02-02T12:42:18.120Z,17.23
2019-02-02T12:44:47.734Z,18.83
2019-02-02T12:47:36.299Z,18.50
2019-02-02T12:50:26.549Z,22.27
2019-02-02T12:52:56.177Z,18.53
2019-02-02T12:55:26.076Z,21.03
2019-02-02T12:57:56.826Z,20.20
2019-02-02T13:00:26.491Z,20.53
2019-02-02T13:02:55.911Z,19.80
2019-02-02T13:05:25.489Z,19.60
2019-02-02T13:07:54.934Z,22.40
2019-02-02T13:10:25.660Z,21.67
2019-02-02T13:12:55.313Z,20.63
2019-02-02T13:15:24.776Z,21.70
2019-02-02T13:17:54.557Z,20.87
2019-02-02T13:20:24.204Z,23.03
2019-02-02T13:22:53.692Z,24.93
2019-02-02T13:25:23.197Z,26.83
2019-02-02T13:27:52.818Z,26.47
2019-02-02T13:30:46.543Z,26.00
2019-02-02T13:33:27.974Z,23.97
2019-02-02T13:36:02.189Z,25.73
2019-02-02T13:38:50.995Z,27.23
2019-02-02T13:55:51.567Z,26.10
2019-02-02T14:01:02.686Z,26.10
2019-02-02T14:06:36.004Z,24.90
2019-02-02T14:09:27.169Z,30.83
2019-02-02T14:12:08.057Z,30.03
2019-02-02T14:14:39.722Z,27.13
2019-02-02T14:17:09.220Z,25.70
2019-02-02T14:19:42.435Z,26.60
2019-02-02T14:22:12.078Z,28.83
2019-02-02T14:24:41.546Z,32.70
2019-02-02T14:27:11.276Z,34.90
2019-02-02T14:29:40.988Z,30.60
2019-02-02T14:32:10.418Z,34.10
2019-02-02T14:34:40.677Z,35.80
2019-02-02T14:37:11.369Z,31.67
2019-02-02T14:39:43.033Z,27.97
2019-02-02T14:42:12.485Z,26.00
2019-02-02T14:45:00.964Z,33.17
2019-02-02T14:47:31.110Z,33.83
2019-02-02T14:50:25.242Z,27.23
2019-02-02T14:55:48.623Z,26.77
2019-02-02T14:58:18.048Z,26.73
2019-02-02T15:01:06.477Z,25.63
2019-02-02T15:03:35.923Z,31.37
2019-02-02T15:06:05.362Z,25.77
2019-02-02T15:08:34.882Z,23.73
2019-02-02T15:11:04.315Z,31.97
2019-02-02T15:13:33.740Z,29.77
2019-02-02T15:16:03.247Z,30.03
2019-02-02T15:18:33.707Z,24.97
2019-02-02T15:21:03.170Z,25.40
2019-02-02T15:23:33.282Z,28.77
2019-02-02T15:26:21.791Z,25.10
2019-02-02T15:28:51.304Z,27.47
2019-02-02T15:31:20.765Z,26.47
2019-02-02T15:34:09.333Z,27.23
2019-02-02T15:36:39.195Z,27.60
2019-02-02T15:39:10.252Z,30.77
2019-02-02T15:44:34.144Z,23.20
2019-02-02T15:47:03.687Z,24.77
2019-02-02T15:49:34.367Z,28.70
2019-02-02T15:52:37.434Z,27.43
2019-02-02T15:55:09.382Z,20.87
2019-02-02T15:57:39.448Z,25.43
2019-02-02T16:00:33.451Z,25.60
2019-02-02T16:03:21.962Z,25.17
2019-02-02T16:05:51.586Z,25.77
2019-02-02T16:08:59.143Z,23.30
2019-02-02T16:11:40.499Z,26.87
2019-02-02T16:16:45.340Z,26.37
2019-02-02T16:19:33.897Z,22.33
2019-02-02T16:24:52.032Z,24.90
2019-02-02T16:27:40.542Z,30.47
2019-02-02T16:30:12.682Z,20.73
2019-02-02T16:32:42.564Z,22.17
2019-02-02T16:35:31.191Z,24.43
2019-02-02T16:38:01.751Z,28.27
2019-02-02T16:40:50.272Z,22.90
2019-02-02T16:43:19.769Z,20.03
2019-02-02T16:45:49.246Z,26.00
2019-02-02T16:48:56.759Z,21.97
2019-02-02T16:51:39.208Z,17.43
2019-02-02T16:54:11.294Z,21.47
2019-02-02T16:56:40.881Z,18.33
2019-02-02T16:59:29.477Z,19.70
2019-02-02T17:01:59.109Z,21.97
2019-02-02T17:04:28.742Z,22.77
2019-02-02T17:06:58.319Z,17.10
2019-02-02T17:09:27.933Z,22.77
2019-02-02T17:11:57.548Z,20.97
2019-02-02T17:14:46.836Z,17.90
2019-02-02T17:17:19.273Z,19.13
2019-02-02T17:19:48.667Z,18.07
2019-02-02T17:22:37.238Z,18.53
2019-02-02T17:25:22.557Z,16.70
2019-02-02T17:27:50.099Z,15.33
2019-02-02T17:30:21.152Z,15.63
2019-02-02T17:32:51.593Z,16.33
2019-02-02T17:35:21.076Z,16.13
2019-02-02T17:37:50.638Z,14.13
2019-02-02T17:40:22.680Z,16.40
2019-02-02T17:42:52.201Z,16.60
2019-02-02T17:45:42.089Z,18.30
2019-02-02T17:48:13.268Z,16.00
2019-02-02T17:50:43.088Z,15.27
2019-02-02T17:53:23.589Z,15.83
2019-02-02T17:55:54.706Z,15.53
2019-02-02T17:58:24.219Z,14.33
2019-02-02T18:00:59.257Z,13.13
2019-02-02T18:03:28.694Z,12.23
2019-02-02T18:05:58.163Z,14.60
2019-02-02T18:08:27.703Z,13.93
2019-02-02T18:10:57.207Z,15.03
2019-02-02T18:13:45.553Z,13.33
2019-02-02T18:19:08.272Z,12.80
2019-02-02T18:21:37.783Z,10.77
2019-02-02T18:24:07.286Z,9.50
2019-02-02T18:26:55.966Z,10.97
2019-02-02T18:29:25.411Z,10.87
2019-02-02T18:31:55.552Z,13.10
2019-02-02T18:34:25.031Z,11.20
2019-02-02T18:36:54.472Z,11.93
2019-02-02T18:39:23.984Z,12.23
2019-02-02T18:41:53.553Z,7.27
2019-02-02T18:44:23.067Z,8.80
2019-02-02T18:46:52.519Z,10.47
2019-02-02T18:49:22.015Z,11.67
2019-02-02T18:51:51.452Z,10.43
2019-02-02T18:54:32.353Z,10.60
2019-02-02T18:57:01.865Z,10.37
2019-02-02T18:59:31.463Z,8.80
2019-02-02T19:02:01.001Z,10.23
2019-02-02T19:04:30.409Z,10.97
2019-02-02T19:06:59.875Z,8.80
2019-02-02T19:09:48.474Z,8.73
2019-02-02T19:12:30.297Z,10.27
2019-02-02T19:15:03.320Z,8.13
2019-02-02T19:17:52.432Z,8.70
2019-02-02T19:20:33.094Z,9.80
2019-02-02T19:23:24.686Z,8.17
2019-02-02T19:25:48.735Z,8.00
2019-02-02T19:28:18.175Z,9.67
2019-02-02T19:30:58.720Z,7.73
2019-02-02T19:33:28.227Z,8.77
2019-02-02T19:35:58.146Z,7.07
2019-02-02T19:38:27.614Z,6.23
2019-02-02T19:41:01.344Z,8.13
2019-02-02T19:43:49.865Z,7.70
2019-02-02T19:46:19.834Z,10.93
2019-02-02T19:48:49.546Z,7.87
2019-02-02T19:53:58.157Z,7.37
2019-02-02T19:56:39.421Z,6.80
2019-02-02T19:59:09.359Z,7.43
2019-02-02T20:01:39.164Z,8.43
2019-02-02T20:06:57.406Z,8.37
2019-02-02T20:09:48.592Z,7.40
2019-02-02T20:12:29.263Z,7.60
2019-02-02T20:14:58.895Z,5.87
2019-02-02T20:18:09.490Z,8.37
2019-02-02T20:23:17.002Z,8.57
2019-02-02T20:25:48.064Z,7.37
2019-02-02T20:28:17.730Z,5.83
2019-02-02T20:31:06.273Z,7.13
2019-02-02T20:33:35.763Z,6.93
2019-02-02T20:36:24.258Z,7.33
2019-02-02T20:38:54.532Z,5.50
2019-02-02T20:41:43.019Z,6.70
2019-02-02T20:44:23.988Z,5.43
2019-02-02T20:46:53.455Z,5.27
2019-02-02T20:49:25.217Z,5.67
2019-02-02T20:51:54.652Z,6.23
2019-02-02T20:57:21.129Z,4.90
2019-02-02T21:00:14.646Z,6.53
2019-02-02T21:02:54.668Z,6.10
2019-02-02T21:05:24.215Z,5.27
2019-02-02T21:08:12.765Z,4.43
2019-02-02T21:10:44.479Z,7.07
2019-02-02T21:13:17.001Z,5.67
2019-02-02T21:18:35.335Z,4.63
2019-02-02T21:21:23.816Z,5.60
2019-02-02T21:29:04.055Z,3.77
2019-02-02T21:31:52.757Z,4.03
2019-02-02T21:34:22.753Z,4.57
2019-02-02T21:36:52.358Z,4.27
2019-02-02T21:39:21.853Z,3.73
2019-02-02T21:42:10.401Z,4.03
2019-02-02T21:44:43.579Z,3.37
2019-02-02T21:47:27.320Z,4.43
2019-02-02T21:49:46.230Z,3.30
2019-02-02T21:52:16.138Z,3.53
2019-02-02T21:54:47.845Z,4.60
2019-02-02T21:57:36.456Z,2.40
2019-02-02T22:00:27.060Z,3.60
2019-02-02T22:02:56.682Z,3.27
2019-02-02T22:05:26.116Z,3.57
2019-02-02T22:07:55.813Z,2.90
2019-02-02T22:10:44.679Z,3.40
2019-02-02T22:13:33.441Z,2.57
2019-02-02T22:16:02.950Z,3.07
2019-02-02T22:18:32.742Z,3.43
2019-02-02T22:21:02.260Z,2.10
2019-02-02T22:23:31.741Z,3.47
2019-02-02T22:26:01.248Z,2.60
2019-02-02T22:28:30.879Z,2.13
2019-02-02T22:31:19.435Z,1.73
2019-02-02T22:33:48.914Z,2.90
2019-02-02T22:36:27.062Z,2.00
2019-02-02T22:39:08.964Z,2.60
2019-02-02T22:41:38.977Z,3.07
2019-02-02T22:44:08.834Z,2.63
2019-02-02T22:46:40.886Z,1.60
2019-02-02T22:49:31.069Z,1.90
2019-02-02T22:52:11.543Z,2.10
2019-02-02T22:54:46.009Z,1.77
2019-02-02T22:57:15.962Z,1.80
2019-02-02T23:00:05.914Z,2.33
2019-02-02T23:02:35.452Z,2.33
2019-02-02T23:05:43.108Z,2.40
2019-02-02T23:08:24.271Z,2.67
2019-02-02T23:11:06.012Z,2.10
2019-02-02T23:14:16.466Z,2.60
2019-02-02T23:16:48.835Z,2.23
2019-02-02T23:19:38.023Z,2.13
2019-02-02T23:22:18.795Z,1.73
2019-02-02T23:24:59.595Z,2.03
2019-02-02T23:27:29.169Z,2.00
2019-02-02T23:29:58.614Z,2.23
2019-02-02T23:32:28.171Z,2.17
2019-02-02T23:35:16.947Z,2.83
2019-02-02T23:38:05.467Z,2.37
2019-02-02T23:40:34.985Z,1.73
2019-02-02T23:43:04.527Z,2.10
2019-02-02T23:45:34.055Z,2.20
2019-02-02T23:48:18.339Z,1.80
2019-02-02T23:53:23.359Z,1.97
2019-02-02T23:55:52.852Z,1.90
2019-02-02T23:58:22.400Z,2.10
